sensor_id;sensor_type;location;lat;lon;timestamp;P1;durP1;ratioP1;P2;durP2;ratioP2
82574;SDS011;72260;65.870;13.210;2024-01-25T00:00:21;2.50;;;0.35;;
82574;SDS011;72260;65.870;13.210;2024-01-25T00:02:46;0.82;;;0.50;;
82574;SDS011;72260;65.870;13.210;2024-01-25T00:05:12;0.28;;;0.28;;
82574;SDS011;72260;65.870;13.210;2024-01-25T00:07:50;0.40;;;0.38;;
82574;SDS011;72260;65.870;13.210;2024-01-25T00:10:17;1.65;;;0.45;;
82574;SDS011;72260;65.870;13.210;2024-01-25T00:12:43;0.40;;;0.40;;
82574;SDS011;72260;65.870;13.210;2024-01-25T00:15:09;1.08;;;0.70;;
82574;SDS011;72260;65.870;13.210;2024-01-25T00:17:35;0.52;;;0.43;;
82574;SDS011;72260;65.870;13.210;2024-01-25T00:20:02;0.40;;;0.40;;
82574;SDS011;72260;65.870;13.210;2024-01-25T00:22:28;0.40;;;0.40;;
82574;SDS011;72260;65.870;13.210;2024-01-25T00:24:53;0.40;;;0.22;;
82574;SDS011;72260;65.870;13.210;2024-01-25T00:27:19;0.38;;;0.22;;
82574;SDS011;72260;65.870;13.210;2024-01-25T00:29:45;0.30;;;0.30;;
82574;SDS011;72260;65.870;13.210;2024-01-25T00:32:10;0.10;;;0.10;;
82574;SDS011;72260;65.870;13.210;2024-01-25T00:34:36;0.10;;;0.03;;
82574;SDS011;72260;65.870;13.210;2024-01-25T00:37:01;0.32;;;0.32;;
82574;SDS011;72260;65.870;13.210;2024-01-25T00:39:27;0.30;;;0.30;;
82574;SDS011;72260;65.870;13.210;2024-01-25T00:41:55;0.28;;;0.28;;
82574;SDS011;72260;65.870;13.210;2024-01-25T00:44:29;1.10;;;0.20;;
82574;SDS011;72260;65.870;13.210;2024-01-25T00:46:55;0.32;;;0.13;;
82574;SDS011;72260;65.870;13.210;2024-01-25T00:49:21;0.22;;;0.22;;
82574;SDS011;72260;65.870;13.210;2024-01-25T00:51:47;0.30;;;0.28;;
82574;SDS011;72260;65.870;13.210;2024-01-25T00:54:13;0.40;;;0.40;;
82574;SDS011;72260;65.870;13.210;2024-01-25T00:56:40;1.25;;;0.30;;
82574;SDS011;72260;65.870;13.210;2024-01-25T00:59:06;0.20;;;0.20;;
82574;SDS011;72260;65.870;13.210;2024-01-25T01:01:31;0.38;;;0.38;;
82574;SDS011;72260;65.870;13.210;2024-01-25T01:03:58;0.63;;;0.40;;
82574;SDS011;72260;65.870;13.210;2024-01-25T01:06:24;0.52;;;0.30;;
82574;SDS011;72260;65.870;13.210;2024-01-25T01:08:50;0.13;;;0.13;;
82574;SDS011;72260;65.870;13.210;2024-01-25T01:11:16;1.45;;;0.52;;
82574;SDS011;72260;65.870;13.210;2024-01-25T01:13:41;0.38;;;0.38;;
82574;SDS011;72260;65.870;13.210;2024-01-25T01:16:07;0.45;;;0.35;;
82574;SDS011;72260;65.870;13.210;2024-01-25T01:18:32;0.00;;;0.00;;
82574;SDS011;72260;65.870;13.210;2024-01-25T01:20:58;0.65;;;0.35;;
82574;SDS011;72260;65.870;13.210;2024-01-25T01:23:23;0.00;;;0.00;;
82574;SDS011;72260;65.870;13.210;2024-01-25T01:25:49;0.90;;;0.30;;
82574;SDS011;72260;65.870;13.210;2024-01-25T01:28:14;0.30;;;0.28;;
82574;SDS011;72260;65.870;13.210;2024-01-25T01:30:40;0.85;;;0.43;;
82574;SDS011;72260;65.870;13.210;2024-01-25T01:33:11;0.30;;;0.30;;
82574;SDS011;72260;65.870;13.210;2024-01-25T01:35:36;0.22;;;0.22;;
82574;SDS011;72260;65.870;13.210;2024-01-25T01:38:02;1.75;;;0.57;;
82574;SDS011;72260;65.870;13.210;2024-01-25T01:40:28;0.30;;;0.10;;
82574;SDS011;72260;65.870;13.210;2024-01-25T01:42:59;0.32;;;0.32;;
82574;SDS011;72260;65.870;13.210;2024-01-25T01:45:26;0.30;;;0.30;;
82574;SDS011;72260;65.870;13.210;2024-01-25T01:47:52;0.30;;;0.30;;
82574;SDS011;72260;65.870;13.210;2024-01-25T01:50:18;0.40;;;0.40;;
82574;SDS011;72260;65.870;13.210;2024-01-25T01:52:43;0.52;;;0.15;;
82574;SDS011;72260;65.870;13.210;2024-01-25T01:55:10;1.40;;;0.50;;
82574;SDS011;72260;65.870;13.210;2024-01-25T01:57:36;0.35;;;0.28;;
82574;SDS011;72260;65.870;13.210;2024-01-25T02:00:02;0.22;;;0.10;;
82574;SDS011;72260;65.870;13.210;2024-01-25T02:02:29;0.00;;;0.00;;
82574;SDS011;72260;65.870;13.210;2024-01-25T02:04:55;0.38;;;0.38;;
82574;SDS011;72260;65.870;13.210;2024-01-25T02:07:21;1.23;;;0.43;;
82574;SDS011;72260;65.870;13.210;2024-01-25T02:09:46;0.00;;;0.00;;
82574;SDS011;72260;65.870;13.210;2024-01-25T02:12:14;0.30;;;0.30;;
82574;SDS011;72260;65.870;13.210;2024-01-25T02:14:41;0.20;;;0.20;;
82574;SDS011;72260;65.870;13.210;2024-01-25T02:17:07;0.20;;;0.20;;
82574;SDS011;72260;65.870;13.210;2024-01-25T02:19:32;0.10;;;0.10;;
82574;SDS011;72260;65.870;13.210;2024-01-25T02:21:58;1.55;;;0.47;;
82574;SDS011;72260;65.870;13.210;2024-01-25T02:24:24;0.03;;;0.03;;
82574;SDS011;72260;65.870;13.210;2024-01-25T02:26:49;0.15;;;0.10;;
82574;SDS011;72260;65.870;13.210;2024-01-25T02:29:15;0.32;;;0.10;;
82574;SDS011;72260;65.870;13.210;2024-01-25T02:31:40;0.00;;;0.00;;
82574;SDS011;72260;65.870;13.210;2024-01-25T02:34:06;0.00;;;0.00;;
82574;SDS011;72260;65.870;13.210;2024-01-25T02:36:31;0.10;;;0.10;;
82574;SDS011;72260;65.870;13.210;2024-01-25T02:38:57;0.10;;;0.05;;
82574;SDS011;72260;65.870;13.210;2024-01-25T02:41:23;0.45;;;0.40;;
82574;SDS011;72260;65.870;13.210;2024-01-25T02:43:49;0.30;;;0.30;;
82574;SDS011;72260;65.870;13.210;2024-01-25T02:46:15;0.93;;;0.40;;
82574;SDS011;72260;65.870;13.210;2024-01-25T02:48:40;0.85;;;0.30;;
82574;SDS011;72260;65.870;13.210;2024-01-25T02:51:06;1.20;;;0.30;;
82574;SDS011;72260;65.870;13.210;2024-01-25T02:53:31;1.48;;;0.30;;
82574;SDS011;72260;65.870;13.210;2024-01-25T02:55:57;0.43;;;0.43;;
82574;SDS011;72260;65.870;13.210;2024-01-25T02:58:22;1.83;;;0.40;;
82574;SDS011;72260;65.870;13.210;2024-01-25T03:00:48;0.15;;;0.15;;
82574;SDS011;72260;65.870;13.210;2024-01-25T03:03:13;0.30;;;0.30;;
82574;SDS011;72260;65.870;13.210;2024-01-25T03:05:39;0.20;;;0.15;;
82574;SDS011;72260;65.870;13.210;2024-01-25T03:08:04;0.82;;;0.28;;
82574;SDS011;72260;65.870;13.210;2024-01-25T03:10:30;0.30;;;0.30;;
82574;SDS011;72260;65.870;13.210;2024-01-25T03:12:55;0.43;;;0.30;;
82574;SDS011;72260;65.870;13.210;2024-01-25T03:15:21;1.13;;;0.30;;
82574;SDS011;72260;65.870;13.210;2024-01-25T03:17:46;0.28;;;0.25;;
82574;SDS011;72260;65.870;13.210;2024-01-25T03:20:12;0.63;;;0.30;;
82574;SDS011;72260;65.870;13.210;2024-01-25T03:22:37;1.38;;;0.20;;
82574;SDS011;72260;65.870;13.210;2024-01-25T03:25:03;0.30;;;0.30;;
82574;SDS011;72260;65.870;13.210;2024-01-25T03:27:29;0.75;;;0.40;;
82574;SDS011;72260;65.870;13.210;2024-01-25T03:29:54;2.17;;;0.38;;
82574;SDS011;72260;65.870;13.210;2024-01-25T03:32:20;0.20;;;0.20;;
82574;SDS011;72260;65.870;13.210;2024-01-25T03:34:45;1.67;;;0.30;;
82574;SDS011;72260;65.870;13.210;2024-01-25T03:37:11;0.38;;;0.38;;
82574;SDS011;72260;65.870;13.210;2024-01-25T03:39:36;0.45;;;0.32;;
82574;SDS011;72260;65.870;13.210;2024-01-25T03:42:02;0.63;;;0.43;;
82574;SDS011;72260;65.870;13.210;2024-01-25T03:44:27;0.00;;;0.00;;
82574;SDS011;72260;65.870;13.210;2024-01-25T03:46:53;1.08;;;0.50;;
82574;SDS011;72260;65.870;13.210;2024-01-25T03:49:18;0.40;;;0.40;;
82574;SDS011;72260;65.870;13.210;2024-01-25T03:51:44;0.20;;;0.20;;
82574;SDS011;72260;65.870;13.210;2024-01-25T03:54:10;0.50;;;0.50;;
82574;SDS011;72260;65.870;13.210;2024-01-25T03:56:37;0.28;;;0.28;;
82574;SDS011;72260;65.870;13.210;2024-01-25T03:59:02;0.30;;;0.30;;
82574;SDS011;72260;65.870;13.210;2024-01-25T04:01:28;0.32;;;0.32;;
82574;SDS011;72260;65.870;13.210;2024-01-25T04:03:53;0.43;;;0.30;;
82574;SDS011;72260;65.870;13.210;2024-01-25T04:06:19;0.47;;;0.40;;
82574;SDS011;72260;65.870;13.210;2024-01-25T04:08:44;0.28;;;0.20;;
82574;SDS011;72260;65.870;13.210;2024-01-25T04:11:10;0.22;;;0.10;;
82574;SDS011;72260;65.870;13.210;2024-01-25T04:13:35;1.42;;;0.75;;
82574;SDS011;72260;65.870;13.210;2024-01-25T04:16:01;0.45;;;0.28;;
82574;SDS011;72260;65.870;13.210;2024-01-25T04:18:26;0.40;;;0.40;;
82574;SDS011;72260;65.870;13.210;2024-01-25T04:20:52;0.47;;;0.47;;
82574;SDS011;72260;65.870;13.210;2024-01-25T04:23:17;0.35;;;0.35;;
82574;SDS011;72260;65.870;13.210;2024-01-25T04:25:43;0.32;;;0.20;;
82574;SDS011;72260;65.870;13.210;2024-01-25T04:28:09;0.40;;;0.40;;
82574;SDS011;72260;65.870;13.210;2024-01-25T04:30:34;0.20;;;0.20;;
82574;SDS011;72260;65.870;13.210;2024-01-25T04:33:00;0.50;;;0.22;;
82574;SDS011;72260;65.870;13.210;2024-01-25T04:35:25;0.30;;;0.25;;
82574;SDS011;72260;65.870;13.210;2024-01-25T04:37:51;1.85;;;0.50;;
82574;SDS011;72260;65.870;13.210;2024-01-25T04:40:16;0.10;;;0.10;;
82574;SDS011;72260;65.870;13.210;2024-01-25T04:42:42;0.38;;;0.38;;
82574;SDS011;72260;65.870;13.210;2024-01-25T04:45:08;1.17;;;0.68;;
82574;SDS011;72260;65.870;13.210;2024-01-25T04:47:34;0.52;;;0.52;;
82574;SDS011;72260;65.870;13.210;2024-01-25T04:49:59;0.40;;;0.40;;
82574;SDS011;72260;65.870;13.210;2024-01-25T04:52:25;0.63;;;0.35;;
82574;SDS011;72260;65.870;13.210;2024-01-25T04:54:50;0.10;;;0.10;;
82574;SDS011;72260;65.870;13.210;2024-01-25T04:57:16;3.00;;;0.60;;
82574;SDS011;72260;65.870;13.210;2024-01-25T04:59:41;0.22;;;0.22;;
82574;SDS011;72260;65.870;13.210;2024-01-25T05:02:07;0.52;;;0.30;;
82574;SDS011;72260;65.870;13.210;2024-01-25T05:04:32;0.05;;;0.05;;
82574;SDS011;72260;65.870;13.210;2024-01-25T05:06:59;0.65;;;0.43;;
82574;SDS011;72260;65.870;13.210;2024-01-25T05:09:25;0.40;;;0.40;;
82574;SDS011;72260;65.870;13.210;2024-01-25T05:11:50;1.08;;;0.22;;
82574;SDS011;72260;65.870;13.210;2024-01-25T05:14:16;0.40;;;0.40;;
82574;SDS011;72260;65.870;13.210;2024-01-25T05:16:41;0.50;;;0.50;;
82574;SDS011;72260;65.870;13.210;2024-01-25T05:19:07;0.80;;;0.47;;
82574;SDS011;72260;65.870;13.210;2024-01-25T05:21:32;0.50;;;0.22;;
82574;SDS011;72260;65.870;13.210;2024-01-25T05:23:59;0.15;;;0.15;;
82574;SDS011;72260;65.870;13.210;2024-01-25T05:26:25;0.85;;;0.47;;
82574;SDS011;72260;65.870;13.210;2024-01-25T05:28:51;0.20;;;0.20;;
82574;SDS011;72260;65.870;13.210;2024-01-25T05:31:17;1.15;;;0.35;;
82574;SDS011;72260;65.870;13.210;2024-01-25T05:33:42;0.40;;;0.40;;
82574;SDS011;72260;65.870;13.210;2024-01-25T05:36:09;1.52;;;0.80;;
82574;SDS011;72260;65.870;13.210;2024-01-25T05:38:35;2.05;;;0.95;;
82574;SDS011;72260;65.870;13.210;2024-01-25T05:41:00;0.43;;;0.35;;
82574;SDS011;72260;65.870;13.210;2024-01-25T05:43:26;0.50;;;0.50;;
82574;SDS011;72260;65.870;13.210;2024-01-25T05:45:51;1.33;;;0.57;;
82574;SDS011;72260;65.870;13.210;2024-01-25T05:48:17;0.85;;;0.43;;
82574;SDS011;72260;65.870;13.210;2024-01-25T05:50:42;0.45;;;0.45;;
82574;SDS011;72260;65.870;13.210;2024-01-25T05:53:08;0.50;;;0.45;;
82574;SDS011;72260;65.870;13.210;2024-01-25T05:55:33;0.35;;;0.15;;
82574;SDS011;72260;65.870;13.210;2024-01-25T05:57:59;0.43;;;0.35;;
82574;SDS011;72260;65.870;13.210;2024-01-25T06:00:24;0.60;;;0.60;;
82574;SDS011;72260;65.870;13.210;2024-01-25T06:02:50;0.30;;;0.22;;
82574;SDS011;72260;65.870;13.210;2024-01-25T06:05:16;1.30;;;0.47;;
82574;SDS011;72260;65.870;13.210;2024-01-25T06:07:42;0.40;;;0.40;;
82574;SDS011;72260;65.870;13.210;2024-01-25T06:10:08;0.65;;;0.45;;
82574;SDS011;72260;65.870;13.210;2024-01-25T06:12:34;1.40;;;0.55;;
82574;SDS011;72260;65.870;13.210;2024-01-25T06:15:00;7.18;;;2.40;;
82574;SDS011;72260;65.870;13.210;2024-01-25T06:17:26;15.55;;;6.18;;
82574;SDS011;72260;65.870;13.210;2024-01-25T06:19:51;7.18;;;4.70;;
82574;SDS011;72260;65.870;13.210;2024-01-25T06:22:17;14.85;;;7.55;;
82574;SDS011;72260;65.870;13.210;2024-01-25T06:24:43;4.00;;;2.20;;
82574;SDS011;72260;65.870;13.210;2024-01-25T06:27:11;4.47;;;2.45;;
82574;SDS011;72260;65.870;13.210;2024-01-25T06:29:37;5.82;;;3.15;;
82574;SDS011;72260;65.870;13.210;2024-01-25T06:32:03;5.35;;;2.20;;
82574;SDS011;72260;65.870;13.210;2024-01-25T06:34:28;3.33;;;1.70;;
82574;SDS011;72260;65.870;13.210;2024-01-25T06:36:54;1.85;;;0.90;;
82574;SDS011;72260;65.870;13.210;2024-01-25T06:39:19;1.27;;;0.32;;
82574;SDS011;72260;65.870;13.210;2024-01-25T06:41:45;1.33;;;0.50;;
82574;SDS011;72260;65.870;13.210;2024-01-25T06:44:10;0.70;;;0.43;;
82574;SDS011;72260;65.870;13.210;2024-01-25T06:46:36;0.32;;;0.22;;
82574;SDS011;72260;65.870;13.210;2024-01-25T06:49:01;0.40;;;0.38;;
82574;SDS011;72260;65.870;13.210;2024-01-25T06:51:28;1.63;;;1.02;;
82574;SDS011;72260;65.870;13.210;2024-01-25T06:53:53;0.52;;;0.35;;
82574;SDS011;72260;65.870;13.210;2024-01-25T06:56:19;0.45;;;0.45;;
82574;SDS011;72260;65.870;13.210;2024-01-25T06:58:44;0.98;;;0.90;;
82574;SDS011;72260;65.870;13.210;2024-01-25T07:01:10;1.23;;;0.95;;
82574;SDS011;72260;65.870;13.210;2024-01-25T07:03:35;1.30;;;0.80;;
82574;SDS011;72260;65.870;13.210;2024-01-25T07:06:01;0.80;;;0.50;;
82574;SDS011;72260;65.870;13.210;2024-01-25T07:08:27;0.95;;;0.77;;
82574;SDS011;72260;65.870;13.210;2024-01-25T07:10:53;0.73;;;0.65;;
82574;SDS011;72260;65.870;13.210;2024-01-25T07:13:18;0.65;;;0.60;;
82574;SDS011;72260;65.870;13.210;2024-01-25T07:15:46;0.90;;;0.82;;
82574;SDS011;72260;65.870;13.210;2024-01-25T07:18:11;0.65;;;0.65;;
82574;SDS011;72260;65.870;13.210;2024-01-25T07:20:37;0.82;;;0.57;;
82574;SDS011;72260;65.870;13.210;2024-01-25T07:23:02;0.90;;;0.80;;
82574;SDS011;72260;65.870;13.210;2024-01-25T07:25:28;1.17;;;0.98;;
82574;SDS011;72260;65.870;13.210;2024-01-25T07:27:53;2.35;;;1.42;;
82574;SDS011;72260;65.870;13.210;2024-01-25T07:30:19;1.60;;;1.00;;
82574;SDS011;72260;65.870;13.210;2024-01-25T07:32:44;0.57;;;0.55;;
82574;SDS011;72260;65.870;13.210;2024-01-25T07:35:11;1.40;;;1.00;;
82574;SDS011;72260;65.870;13.210;2024-01-25T07:37:38;1.63;;;1.05;;
82574;SDS011;72260;65.870;13.210;2024-01-25T07:40:04;1.40;;;0.80;;
82574;SDS011;72260;65.870;13.210;2024-01-25T07:42:30;0.98;;;0.70;;
82574;SDS011;72260;65.870;13.210;2024-01-25T07:44:57;0.60;;;0.60;;
82574;SDS011;72260;65.870;13.210;2024-01-25T07:47:23;0.30;;;0.30;;
82574;SDS011;72260;65.870;13.210;2024-01-25T07:49:48;1.75;;;1.00;;
82574;SDS011;72260;65.870;13.210;2024-01-25T07:52:14;0.65;;;0.65;;
82574;SDS011;72260;65.870;13.210;2024-01-25T07:54:40;0.65;;;0.30;;
82574;SDS011;72260;65.870;13.210;2024-01-25T07:57:05;1.05;;;0.50;;
82574;SDS011;72260;65.870;13.210;2024-01-25T07:59:31;0.47;;;0.45;;
82574;SDS011;72260;65.870;13.210;2024-01-25T08:01:56;0.52;;;0.40;;
82574;SDS011;72260;65.870;13.210;2024-01-25T08:04:22;1.30;;;1.10;;
82574;SDS011;72260;65.870;13.210;2024-01-25T08:06:47;2.30;;;0.60;;
82574;SDS011;72260;65.870;13.210;2024-01-25T08:09:13;2.15;;;0.80;;
82574;SDS011;72260;65.870;13.210;2024-01-25T08:11:39;1.52;;;0.70;;
82574;SDS011;72260;65.870;13.210;2024-01-25T08:14:04;0.88;;;0.77;;
82574;SDS011;72260;65.870;13.210;2024-01-25T08:16:30;1.35;;;0.70;;
82574;SDS011;72260;65.870;13.210;2024-01-25T08:18:57;1.10;;;0.73;;
82574;SDS011;72260;65.870;13.210;2024-01-25T08:21:24;1.55;;;0.93;;
82574;SDS011;72260;65.870;13.210;2024-01-25T08:23:49;2.30;;;1.10;;
82574;SDS011;72260;65.870;13.210;2024-01-25T08:26:14;2.10;;;0.65;;
82574;SDS011;72260;65.870;13.210;2024-01-25T08:28:40;1.10;;;0.98;;
82574;SDS011;72260;65.870;13.210;2024-01-25T08:31:08;0.60;;;0.52;;
82574;SDS011;72260;65.870;13.210;2024-01-25T08:33:34;1.27;;;0.65;;
82574;SDS011;72260;65.870;13.210;2024-01-25T08:35:59;0.30;;;0.30;;
82574;SDS011;72260;65.870;13.210;2024-01-25T08:38:27;0.47;;;0.40;;
82574;SDS011;72260;65.870;13.210;2024-01-25T08:40:53;0.50;;;0.50;;
82574;SDS011;72260;65.870;13.210;2024-01-25T08:43:18;0.90;;;0.70;;
82574;SDS011;72260;65.870;13.210;2024-01-25T08:45:44;0.63;;;0.50;;
82574;SDS011;72260;65.870;13.210;2024-01-25T08:48:09;0.13;;;0.13;;
82574;SDS011;72260;65.870;13.210;2024-01-25T08:50:35;1.15;;;1.05;;
82574;SDS011;72260;65.870;13.210;2024-01-25T08:53:01;0.60;;;0.60;;
82574;SDS011;72260;65.870;13.210;2024-01-25T08:55:27;0.75;;;0.75;;
82574;SDS011;72260;65.870;13.210;2024-01-25T08:57:52;0.52;;;0.50;;
82574;SDS011;72260;65.870;13.210;2024-01-25T09:00:19;1.40;;;0.70;;
82574;SDS011;72260;65.870;13.210;2024-01-25T09:02:45;1.08;;;0.60;;
82574;SDS011;72260;65.870;13.210;2024-01-25T09:05:10;0.55;;;0.50;;
82574;SDS011;72260;65.870;13.210;2024-01-25T09:07:37;1.33;;;0.80;;
82574;SDS011;72260;65.870;13.210;2024-01-25T09:10:02;1.58;;;0.95;;
82574;SDS011;72260;65.870;13.210;2024-01-25T09:12:29;0.68;;;0.68;;
82574;SDS011;72260;65.870;13.210;2024-01-25T09:14:55;1.23;;;0.90;;
82574;SDS011;72260;65.870;13.210;2024-01-25T09:17:21;2.13;;;1.15;;
82574;SDS011;72260;65.870;13.210;2024-01-25T09:19:48;2.33;;;1.50;;
82574;SDS011;72260;65.870;13.210;2024-01-25T09:22:17;2.60;;;1.63;;
82574;SDS011;72260;65.870;13.210;2024-01-25T09:24:45;1.45;;;1.25;;
82574;SDS011;72260;65.870;13.210;2024-01-25T09:27:11;2.30;;;1.70;;
82574;SDS011;72260;65.870;13.210;2024-01-25T09:29:38;1.95;;;1.20;;
82574;SDS011;72260;65.870;13.210;2024-01-25T09:32:05;3.17;;;1.45;;
82574;SDS011;72260;65.870;13.210;2024-01-25T09:34:38;2.10;;;1.33;;
82574;SDS011;72260;65.870;13.210;2024-01-25T09:37:04;3.42;;;1.40;;
82574;SDS011;72260;65.870;13.210;2024-01-25T09:39:33;2.67;;;1.40;;
82574;SDS011;72260;65.870;13.210;2024-01-25T09:42:00;2.05;;;1.10;;
82574;SDS011;72260;65.870;13.210;2024-01-25T09:44:28;2.53;;;1.42;;
82574;SDS011;72260;65.870;13.210;2024-01-25T09:46:53;2.88;;;1.33;;
82574;SDS011;72260;65.870;13.210;2024-01-25T09:49:19;3.10;;;1.60;;
82574;SDS011;72260;65.870;13.210;2024-01-25T09:51:46;2.90;;;1.60;;
82574;SDS011;72260;65.870;13.210;2024-01-25T09:54:15;2.60;;;1.40;;
82574;SDS011;72260;65.870;13.210;2024-01-25T09:56:41;2.63;;;1.30;;
82574;SDS011;72260;65.870;13.210;2024-01-25T09:59:07;3.17;;;0.98;;
82574;SDS011;72260;65.870;13.210;2024-01-25T10:01:34;2.17;;;1.40;;
82574;SDS011;72260;65.870;13.210;2024-01-25T10:04:00;1.45;;;0.95;;
82574;SDS011;72260;65.870;13.210;2024-01-25T10:06:27;1.63;;;1.30;;
82574;SDS011;72260;65.870;13.210;2024-01-25T10:08:55;2.50;;;1.50;;
82574;SDS011;72260;65.870;13.210;2024-01-25T10:11:22;3.22;;;1.63;;
82574;SDS011;72260;65.870;13.210;2024-01-25T10:13:48;3.05;;;1.45;;
82574;SDS011;72260;65.870;13.210;2024-01-25T10:16:16;1.58;;;1.30;;
82574;SDS011;72260;65.870;13.210;2024-01-25T10:18:45;1.45;;;0.85;;
82574;SDS011;72260;65.870;13.210;2024-01-25T10:21:12;0.65;;;0.65;;
82574;SDS011;72260;65.870;13.210;2024-01-25T10:23:38;0.77;;;0.70;;
82574;SDS011;72260;65.870;13.210;2024-01-25T10:26:04;2.13;;;0.80;;
82574;SDS011;72260;65.870;13.210;2024-01-25T10:28:30;0.85;;;0.52;;
82574;SDS011;72260;65.870;13.210;2024-01-25T10:31:00;0.70;;;0.70;;
82574;SDS011;72260;65.870;13.210;2024-01-25T10:33:29;2.25;;;0.98;;
82574;SDS011;72260;65.870;13.210;2024-01-25T10:35:55;1.30;;;1.20;;
82574;SDS011;72260;65.870;13.210;2024-01-25T10:38:30;1.73;;;1.45;;
82574;SDS011;72260;65.870;13.210;2024-01-25T10:43:24;2.45;;;1.70;;
82574;SDS011;72260;65.870;13.210;2024-01-25T10:45:50;1.83;;;1.13;;
82574;SDS011;72260;65.870;13.210;2024-01-25T10:48:20;3.88;;;1.73;;
82574;SDS011;72260;65.870;13.210;2024-01-25T10:50:46;2.80;;;1.48;;
82574;SDS011;72260;65.870;13.210;2024-01-25T10:53:14;4.82;;;1.80;;
82574;SDS011;72260;65.870;13.210;2024-01-25T10:55:42;2.22;;;1.23;;
82574;SDS011;72260;65.870;13.210;2024-01-25T10:58:07;4.53;;;2.20;;
82574;SDS011;72260;65.870;13.210;2024-01-25T11:00:36;3.97;;;1.95;;
82574;SDS011;72260;65.870;13.210;2024-01-25T11:03:02;1.92;;;1.33;;
82574;SDS011;72260;65.870;13.210;2024-01-25T11:05:30;1.80;;;1.25;;
82574;SDS011;72260;65.870;13.210;2024-01-25T11:07:57;2.38;;;1.35;;
82574;SDS011;72260;65.870;13.210;2024-01-25T11:10:26;3.03;;;1.27;;
82574;SDS011;72260;65.870;13.210;2024-01-25T11:15:34;3.05;;;1.40;;
82574;SDS011;72260;65.870;13.210;2024-01-25T11:18:02;1.88;;;1.27;;
82574;SDS011;72260;65.870;13.210;2024-01-25T11:20:31;2.97;;;1.42;;
82574;SDS011;72260;65.870;13.210;2024-01-25T11:23:02;3.60;;;1.40;;
82574;SDS011;72260;65.870;13.210;2024-01-25T11:25:33;4.63;;;1.40;;
82574;SDS011;72260;65.870;13.210;2024-01-25T11:28:00;2.17;;;1.20;;
82574;SDS011;72260;65.870;13.210;2024-01-25T11:30:28;3.10;;;1.13;;
82574;SDS011;72260;65.870;13.210;2024-01-25T11:32:55;3.35;;;1.30;;
82574;SDS011;72260;65.870;13.210;2024-01-25T11:35:21;3.13;;;1.60;;
82574;SDS011;72260;65.870;13.210;2024-01-25T11:37:48;5.90;;;1.85;;
82574;SDS011;72260;65.870;13.210;2024-01-25T11:40:17;5.18;;;2.25;;
82574;SDS011;72260;65.870;13.210;2024-01-25T11:42:43;6.95;;;2.60;;
82574;SDS011;72260;65.870;13.210;2024-01-25T11:45:10;1.20;;;0.98;;
82574;SDS011;72260;65.870;13.210;2024-01-25T11:47:37;3.40;;;1.80;;
82574;SDS011;72260;65.870;13.210;2024-01-25T11:50:03;1.70;;;1.10;;
82574;SDS011;72260;65.870;13.210;2024-01-25T11:52:30;2.45;;;1.30;;
82574;SDS011;72260;65.870;13.210;2024-01-25T11:55:08;2.13;;;1.02;;
82574;SDS011;72260;65.870;13.210;2024-01-25T12:00:06;0.70;;;0.70;;
82574;SDS011;72260;65.870;13.210;2024-01-25T12:02:35;1.52;;;1.42;;
82574;SDS011;72260;65.870;13.210;2024-01-25T12:05:02;2.05;;;1.13;;
82574;SDS011;72260;65.870;13.210;2024-01-25T12:07:29;1.60;;;0.77;;
82574;SDS011;72260;65.870;13.210;2024-01-25T12:09:59;0.70;;;0.70;;
82574;SDS011;72260;65.870;13.210;2024-01-25T12:12:27;1.10;;;0.95;;
82574;SDS011;72260;65.870;13.210;2024-01-25T12:14:56;1.10;;;0.82;;
82574;SDS011;72260;65.870;13.210;2024-01-25T12:17:23;1.48;;;0.55;;
82574;SDS011;72260;65.870;13.210;2024-01-25T12:19:48;1.27;;;1.02;;
82574;SDS011;72260;65.870;13.210;2024-01-25T12:22:19;0.90;;;0.70;;
82574;SDS011;72260;65.870;13.210;2024-01-25T12:24:46;1.17;;;0.70;;
82574;SDS011;72260;65.870;13.210;2024-01-25T12:27:14;0.80;;;0.77;;
82574;SDS011;72260;65.870;13.210;2024-01-25T12:29:40;0.75;;;0.73;;
82574;SDS011;72260;65.870;13.210;2024-01-25T12:32:08;2.47;;;0.90;;
82574;SDS011;72260;65.870;13.210;2024-01-25T12:34:34;0.73;;;0.73;;
82574;SDS011;72260;65.870;13.210;2024-01-25T12:37:01;0.80;;;0.68;;
82574;SDS011;72260;65.870;13.210;2024-01-25T12:39:27;1.13;;;0.82;;
82574;SDS011;72260;65.870;13.210;2024-01-25T12:41:53;1.23;;;0.93;;
82574;SDS011;72260;65.870;13.210;2024-01-25T12:44:18;1.27;;;1.20;;
82574;SDS011;72260;65.870;13.210;2024-01-25T12:46:44;1.45;;;1.35;;
82574;SDS011;72260;65.870;13.210;2024-01-25T12:49:09;3.40;;;1.00;;
82574;SDS011;72260;65.870;13.210;2024-01-25T12:51:35;0.93;;;0.80;;
82574;SDS011;72260;65.870;13.210;2024-01-25T12:54:00;1.00;;;0.90;;
82574;SDS011;72260;65.870;13.210;2024-01-25T12:56:26;0.90;;;0.85;;
82574;SDS011;72260;65.870;13.210;2024-01-25T12:58:51;0.80;;;0.80;;
82574;SDS011;72260;65.870;13.210;2024-01-25T13:01:17;4.32;;;1.10;;
82574;SDS011;72260;65.870;13.210;2024-01-25T13:03:43;1.38;;;0.90;;
82574;SDS011;72260;65.870;13.210;2024-01-25T13:06:11;2.47;;;0.98;;
82574;SDS011;72260;65.870;13.210;2024-01-25T13:08:37;0.80;;;0.75;;
82574;SDS011;72260;65.870;13.210;2024-01-25T13:11:02;1.20;;;1.00;;
82574;SDS011;72260;65.870;13.210;2024-01-25T13:13:28;2.90;;;1.00;;
82574;SDS011;72260;65.870;13.210;2024-01-25T13:15:54;1.40;;;0.95;;
82574;SDS011;72260;65.870;13.210;2024-01-25T13:18:19;2.17;;;1.08;;
82574;SDS011;72260;65.870;13.210;2024-01-25T13:20:45;2.30;;;1.30;;
82574;SDS011;72260;65.870;13.210;2024-01-25T13:23:12;0.73;;;0.73;;
82574;SDS011;72260;65.870;13.210;2024-01-25T13:25:38;1.92;;;0.93;;
82574;SDS011;72260;65.870;13.210;2024-01-25T13:28:04;1.17;;;0.93;;
82574;SDS011;72260;65.870;13.210;2024-01-25T13:30:30;2.65;;;1.45;;
82574;SDS011;72260;65.870;13.210;2024-01-25T13:32:55;1.73;;;1.42;;
82574;SDS011;72260;65.870;13.210;2024-01-25T13:35:21;1.73;;;1.08;;
82574;SDS011;72260;65.870;13.210;2024-01-25T13:37:46;1.63;;;1.23;;
82574;SDS011;72260;65.870;13.210;2024-01-25T13:40:12;1.30;;;1.05;;
82574;SDS011;72260;65.870;13.210;2024-01-25T13:42:37;2.15;;;1.05;;
82574;SDS011;72260;65.870;13.210;2024-01-25T13:45:05;1.38;;;1.00;;
82574;SDS011;72260;65.870;13.210;2024-01-25T13:47:32;1.15;;;1.00;;
82574;SDS011;72260;65.870;13.210;2024-01-25T13:49:57;1.33;;;1.02;;
82574;SDS011;72260;65.870;13.210;2024-01-25T13:52:24;1.55;;;1.02;;
82574;SDS011;72260;65.870;13.210;2024-01-25T13:54:50;1.08;;;0.90;;
82574;SDS011;72260;65.870;13.210;2024-01-25T13:57:16;0.75;;;0.73;;
82574;SDS011;72260;65.870;13.210;2024-01-25T13:59:41;1.35;;;1.08;;
82574;SDS011;72260;65.870;13.210;2024-01-25T14:02:07;0.80;;;0.80;;
82574;SDS011;72260;65.870;13.210;2024-01-25T14:04:33;0.50;;;0.47;;
82574;SDS011;72260;65.870;13.210;2024-01-25T14:06:59;1.38;;;1.00;;
82574;SDS011;72260;65.870;13.210;2024-01-25T14:09:24;1.92;;;1.10;;
82574;SDS011;72260;65.870;13.210;2024-01-25T14:11:54;0.65;;;0.60;;
82574;SDS011;72260;65.870;13.210;2024-01-25T14:14:20;1.17;;;0.90;;
82574;SDS011;72260;65.870;13.210;2024-01-25T14:16:45;1.90;;;1.13;;
82574;SDS011;72260;65.870;13.210;2024-01-25T14:19:11;1.75;;;1.05;;
82574;SDS011;72260;65.870;13.210;2024-01-25T14:21:36;1.10;;;0.95;;
82574;SDS011;72260;65.870;13.210;2024-01-25T14:24:02;1.38;;;1.00;;
82574;SDS011;72260;65.870;13.210;2024-01-25T14:26:27;1.10;;;1.00;;
82574;SDS011;72260;65.870;13.210;2024-01-25T14:28:53;4.72;;;2.10;;
82574;SDS011;72260;65.870;13.210;2024-01-25T14:31:18;5.10;;;2.50;;
82574;SDS011;72260;65.870;13.210;2024-01-25T14:33:44;2.90;;;1.30;;